Time;durP1;ratioP1;P1;durP2;ratioP2;P2;SDS_P1;SDS_P2;PMS_P1;PMS_P2;Temp;Humidity;BMP_temperature;BMP_pressure;BME280_temperature;BME280_humidity;BME280_pressure;Samples;Min_cycle;Max_cycle;Signal;HPM_P1;HPM_P2
2022/12/30 00:00:40;;;;;;;32.38;15.52;;;;;;;;;;12837113;19;20430;-65
2022/12/30 00:04:57;;;;;;;31.08;13.90;;;;;;;;;;12837562;19;20482;-67
2022/12/30 00:09:14;;;;;;;42.78;19.38;;;;;;;;;;12834496;19;20328;-66
2022/12/30 00:36:38;;;;;;;31.90;14.40;;;;;;;;;;12833239;19;20344;-65
2022/12/30 00:45:31;;;;;;;34.80;13.98;;;;;;;;;;12835331;19;20538;-66
2022/12/30 00:58:59;;;;;;;31.42;15.30;;;;;;;;;;12846490;19;20459;-67
2022/12/30 01:03:16;;;;;;;26.60;12.98;;;;;;;;;;12846622;19;20322;-66
2022/12/30 01:07:33;;;;;;;26.58;14.40;;;;;;;;;;12845231;19;20430;-65
2022/12/30 01:12:09;;;;;;;22.40;11.70;;;;;;;;;;12845790;19;20025;-66
2022/12/30 01:16:26;;;;;;;38.70;15.00;;;;;;;;;;12845069;19;20598;-65
2022/12/30 01:20:43;;;;;;;32.13;13.63;;;;;;;;;;12844877;19;20306;-66
2022/12/30 01:25:00;;;;;;;29.63;13.05;;;;;;;;;;12845311;19;20300;-66
2022/12/30 01:29:36;;;;;;;36.67;13.73;;;;;;;;;;12844414;19;20437;-69
2022/12/30 01:33:53;;;;;;;43.40;17.83;;;;;;;;;;12844991;19;20422;-65
2022/12/30 01:38:10;;;;;;;45.70;14.90;;;;;;;;;;12843792;19;20035;-65
2022/12/30 01:42:35;;;;;;;32.03;13.38;;;;;;;;;;12846532;19;20438;-65
2022/12/30 01:46:52;;;;;;;28.77;12.27;;;;;;;;;;12844511;19;20497;-66
2022/12/30 01:51:18;;;;;;;31.55;13.70;;;;;;;;;;12840712;19;20483;-66
2022/12/30 01:56:01;;;;;;;31.52;13.80;;;;;;;;;;12841337;19;20457;-65
2022/12/30 02:00:19;;;;;;;25.45;12.38;;;;;;;;;;12842396;19;20354;-65
2022/12/30 02:04:36;;;;;;;32.97;12.65;;;;;;;;;;12842942;19;20481;-66
2022/12/30 02:08:53;;;;;;;36.17;13.82;;;;;;;;;;12840733;19;20006;-67
2022/12/30 02:13:13;;;;;;;28.90;11.88;;;;;;;;;;12839473;19;20494;-66
2022/12/30 02:18:30;;;;;;;30.80;12.13;;;;;;;;;;12843558;19;20324;-66
2022/12/30 02:23:06;;;;;;;38.60;12.65;;;;;;;;;;12841337;19;20034;-65
2022/12/30 02:28:05;;;;;;;50.80;16.73;;;;;;;;;;12840987;19;20315;-65
2022/12/30 02:32:36;;;;;;;20.30;8.75;;;;;;;;;;12841507;19;20322;-65
2022/12/30 02:37:14;;;;;;;18.35;8.70;;;;;;;;;;12838934;19;20292;-66
2022/12/30 02:46:33;;;;;;;30.85;11.68;;;;;;;;;;12838376;19;20431;-66
2022/12/30 02:55:45;;;;;;;22.83;9.35;;;;;;;;;;12835031;19;20303;-66
2022/12/30 03:04:59;;;;;;;17.33;8.70;;;;;;;;;;12838562;19;20006;-65
2022/12/30 03:09:31;;;;;;;18.00;9.30;;;;;;;;;;12836887;19;20299;-66
2022/12/30 03:14:21;;;;;;;17.23;8.45;;;;;;;;;;12840366;19;20427;-66
2022/12/30 03:18:39;;;;;;;16.27;8.38;;;;;;;;;;12834837;19;20438;-66
2022/12/30 03:27:32;;;;;;;19.45;8.88;;;;;;;;;;12838041;19;20417;-65
2022/12/30 03:31:50;;;;;;;14.98;8.73;;;;;;;;;;12836711;19;20438;-65
2022/12/30 03:36:22;;;;;;;19.20;8.60;;;;;;;;;;12836759;19;20292;-66
2022/12/30 03:40:42;;;;;;;15.13;8.25;;;;;;;;;;12836485;19;20422;-65
2022/12/30 03:44:59;;;;;;;16.70;7.63;;;;;;;;;;12836069;19;20431;-66
2022/12/30 03:49:18;;;;;;;18.98;9.68;;;;;;;;;;12834628;19;20047;-66
2022/12/30 03:53:35;;;;;;;18.55;8.15;;;;;;;;;;12837302;19;20030;-65
2022/12/30 03:57:52;;;;;;;21.17;9.93;;;;;;;;;;12837554;19;20352;-66
2022/12/30 04:02:09;;;;;;;19.90;9.10;;;;;;;;;;12836232;19;20390;-65
2022/12/30 04:06:26;;;;;;;17.80;8.60;;;;;;;;;;12836307;19;20002;-66
2022/12/30 04:10:43;;;;;;;16.88;8.68;;;;;;;;;;12837414;19;20006;-65
2022/12/30 04:15:00;;;;;;;16.67;8.43;;;;;;;;;;12836207;19;20378;-66
2022/12/30 04:19:17;;;;;;;19.25;9.88;;;;;;;;;;12835032;19;20441;-66
2022/12/30 04:23:34;;;;;;;19.88;8.90;;;;;;;;;;12835927;19;20422;-65
2022/12/30 04:27:52;;;;;;;16.38;8.23;;;;;;;;;;12836298;19;20466;-66
2022/12/30 04:32:09;;;;;;;16.73;8.57;;;;;;;;;;12844683;19;20010;-65
2022/12/30 04:36:27;;;;;;;17.65;8.65;;;;;;;;;;12847334;19;20338;-67
2022/12/30 04:40:44;;;;;;;19.13;9.00;;;;;;;;;;12846952;19;20033;-65
2022/12/30 04:45:01;;;;;;;18.45;9.10;;;;;;;;;;12846829;19;20434;-66
2022/12/30 04:49:19;;;;;;;17.90;9.75;;;;;;;;;;12845397;19;20031;-66
2022/12/30 04:53:36;;;;;;;17.05;8.15;;;;;;;;;;12847661;19;20009;-65
2022/12/30 04:57:53;;;;;;;18.48;9.02;;;;;;;;;;12847133;19;20701;-66
2022/12/30 05:02:10;;;;;;;15.50;9.55;;;;;;;;;;12845725;19;20468;-66
2022/12/30 05:06:27;;;;;;;21.63;9.83;;;;;;;;;;12845553;19;20372;-65
2022/12/30 05:10:44;;;;;;;21.05;10.00;;;;;;;;;;12845901;19;20427;-65
2022/12/30 05:15:03;;;;;;;18.73;10.00;;;;;;;;;;12845553;19;20043;-66
2022/12/30 05:19:20;;;;;;;20.60;9.35;;;;;;;;;;12844539;19;20011;-65
2022/12/30 05:28:12;;;;;;;19.20;9.02;;;;;;;;;;12844152;19;20035;-65
2022/12/30 05:32:30;;;;;;;19.55;10.90;;;;;;;;;;12844525;19;20299;-67
2022/12/30 05:36:47;;;;;;;32.30;13.00;;;;;;;;;;12845269;19;20446;-65
2022/12/30 05:41:06;;;;;;;21.67;11.43;;;;;;;;;;12840280;19;20006;-65
2022/12/30 05:45:31;;;;;;;18.23;9.13;;;;;;;;;;12843305;19;20019;-65
2022/12/30 05:49:49;;;;;;;21.27;9.98;;;;;;;;;;12843432;19;20043;-67
2022/12/30 05:54:06;;;;;;;21.30;10.80;;;;;;;;;;12842761;19;20332;-65
2022/12/30 05:58:23;;;;;;;35.10;14.88;;;;;;;;;;12844872;19;20426;-65
2022/12/30 06:02:40;;;;;;;21.70;10.23;;;;;;;;;;12843057;19;20418;-65
2022/12/30 06:06:58;;;;;;;17.95;9.18;;;;;;;;;;12842971;19;20027;-65
2022/12/30 06:11:15;;;;;;;17.17;9.60;;;;;;;;;;12841806;19;20321;-65
2022/12/30 06:15:32;;;;;;;16.95;8.73;;;;;;;;;;12841707;19;20328;-66
2022/12/30 06:19:49;;;;;;;20.98;8.77;;;;;;;;;;12842611;19;20328;-66
2022/12/30 06:24:07;;;;;;;23.70;10.52;;;;;;;;;;12840617;19;20304;-66
2022/12/30 06:28:28;;;;;;;21.47;10.40;;;;;;;;;;12841977;19;20427;-66
2022/12/30 06:32:45;;;;;;;17.58;9.32;;;;;;;;;;12841430;19;20419;-65
2022/12/30 06:37:03;;;;;;;14.30;8.52;;;;;;;;;;12839957;19;20038;-65
2022/12/30 06:41:20;;;;;;;18.15;9.73;;;;;;;;;;12838240;19;20455;-65
2022/12/30 06:45:37;;;;;;;19.23;10.20;;;;;;;;;;12841561;19;20431;-65
2022/12/30 06:49:54;;;;;;;19.27;11.05;;;;;;;;;;12840094;19;20014;-65
2022/12/30 06:54:11;;;;;;;15.25;9.40;;;;;;;;;;12838807;19;20025;-65
2022/12/30 06:58:28;;;;;;;21.63;10.73;;;;;;;;;;12839328;19;20317;-65
2022/12/30 07:02:45;;;;;;;22.35;11.60;;;;;;;;;;12839892;19;20332;-66
2022/12/30 07:07:02;;;;;;;23.67;12.20;;;;;;;;;;12838491;19;20327;-66
2022/12/30 07:11:19;;;;;;;22.58;11.48;;;;;;;;;;12839378;19;20436;-65
2022/12/30 07:15:36;;;;;;;26.98;13.60;;;;;;;;;;12839366;19;20025;-66
2022/12/30 07:19:53;;;;;;;27.83;13.35;;;;;;;;;;12838810;19;20380;-65
2022/12/30 07:24:10;;;;;;;32.20;13.52;;;;;;;;;;12837360;19;20431;-65
2022/12/30 07:28:27;;;;;;;31.85;13.75;;;;;;;;;;12838264;19;20104;-66
2022/12/30 07:32:45;;;;;;;29.55;12.98;;;;;;;;;;12838394;19;20007;-65
2022/12/30 07:37:01;;;;;;;29.27;12.10;;;;;;;;;;12836555;19;20014;-65
2022/12/30 07:41:18;;;;;;;29.38;13.70;;;;;;;;;;12836434;19;20026;-68
2022/12/30 07:45:36;;;;;;;21.20;11.60;;;;;;;;;;12837584;19;20007;-66
2022/12/30 07:49:54;;;;;;;25.90;12.20;;;;;;;;;;12837183;19;20445;-66
2022/12/30 07:54:11;;;;;;;23.73;12.40;;;;;;;;;;12836028;19;20462;-66
2022/12/30 07:58:28;;;;;;;25.65;11.43;;;;;;;;;;12837220;19;20406;-66
2022/12/30 08:02:45;;;;;;;25.98;11.68;;;;;;;;;;12837532;19;20017;-66
2022/12/30 08:07:02;;;;;;;27.27;12.55;;;;;;;;;;12834219;19;20021;-66
2022/12/30 08:11:19;;;;;;;24.15;12.23;;;;;;;;;;12836399;19;20051;-66
2022/12/30 08:15:37;;;;;;;20.08;10.95;;;;;;;;;;12837500;19;20331;-67
2022/12/30 08:19:55;;;;;;;27.63;12.90;;;;;;;;;;12836387;19;20018;-67
2022/12/30 08:24:12;;;;;;;21.83;12.38;;;;;;;;;;12834427;19;20316;-67
2022/12/30 08:28:29;;;;;;;24.10;12.30;;;;;;;;;;12835790;19;20431;-66
2022/12/30 08:32:46;;;;;;;23.27;13.05;;;;;;;;;;12835435;19;20360;-67
2022/12/30 08:37:03;;;;;;;23.48;13.07;;;;;;;;;;12834039;19;20449;-66
2022/12/30 08:41:25;;;;;;;24.23;12.93;;;;;;;;;;12833807;19;20446;-66
2022/12/30 08:45:42;;;;;;;30.17;15.68;;;;;;;;;;12834884;19;20561;-65
2022/12/30 08:50:00;;;;;;;25.58;14.73;;;;;;;;;;12834922;19;20434;-69
2022/12/30 08:54:18;;;;;;;31.47;14.07;;;;;;;;;;12832538;19;20431;-66
2022/12/30 08:58:35;;;;;;;37.92;15.50;;;;;;;;;;12834167;19;20010;-65
2022/12/30 09:02:52;;;;;;;26.38;13.25;;;;;;;;;;12833522;19;20423;-66
2022/12/30 09:07:09;;;;;;;63.90;22.52;;;;;;;;;;12832419;19;20430;-65
2022/12/30 09:11:47;;;;;;;63.20;21.25;;;;;;;;;;12832186;19;20303;-65
2022/12/30 09:16:06;;;;;;;43.25;17.95;;;;;;;;;;12834989;19;20042;-66
2022/12/30 09:20:24;;;;;;;21.90;10.48;;;;;;;;;;12844321;19;20474;-66
2022/12/30 09:24:41;;;;;;;28.73;14.02;;;;;;;;;;12844564;19;20006;-66
2022/12/30 09:28:58;;;;;;;28.27;14.75;;;;;;;;;;12844688;19;20433;-66
2022/12/30 09:33:16;;;;;;;17.50;9.73;;;;;;;;;;12844063;19;20355;-68
2022/12/30 09:37:33;;;;;;;13.48;8.65;;;;;;;;;;12844110;19;20307;-66
2022/12/30 09:46:45;;;;;;;19.98;14.27;;;;;;;;;;12842543;19;20435;-66
2022/12/30 09:51:05;;;;;;;13.95;8.05;;;;;;;;;;12842506;19;20459;-66
2022/12/30 09:55:29;;;;;;;14.55;8.43;;;;;;;;;;12843394;19;20348;-67
2022/12/30 09:59:54;;;;;;;17.70;9.40;;;;;;;;;;12843869;19;20438;-65
2022/12/30 10:04:15;;;;;;;48.45;21.13;;;;;;;;;;12843671;19;20431;-65
2022/12/30 10:09:07;;;;;;;42.85;19.55;;;;;;;;;;12842957;19;20091;-65
2022/12/30 10:13:37;;;;;;;34.47;17.67;;;;;;;;;;12840402;19;20344;-66
2022/12/30 10:18:12;;;;;;;42.40;22.50;;;;;;;;;;12842388;19;20445;-66
2022/12/30 10:22:46;;;;;;;55.33;24.75;;;;;;;;;;12841911;19;20438;-66
2022/12/30 10:27:18;;;;;;;92.25;38.20;;;;;;;;;;12840003;19;20078;-66
2022/12/30 10:31:37;;;;;;;19.45;12.57;;;;;;;;;;12839289;19;20339;-66
2022/12/30 10:36:12;;;;;;;51.20;24.90;;;;;;;;;;12840007;19;20320;-66
2022/12/30 10:41:00;;;;;;;22.77;13.65;;;;;;;;;;12837989;19;20046;-66
2022/12/30 10:45:53;;;;;;;18.10;9.45;;;;;;;;;;12838831;19;20319;-66
2022/12/30 10:50:14;;;;;;;32.70;15.20;;;;;;;;;;12838994;19;20473;-66
2022/12/30 10:54:33;;;;;;;22.33;12.52;;;;;;;;;;12838512;19;20295;-67
2022/12/30 10:58:53;;;;;;;15.60;8.77;;;;;;;;;;12840804;19;20429;-66
2022/12/30 11:03:31;;;;;;;50.55;23.25;;;;;;;;;;12839437;19;20303;-66
2022/12/30 11:07:57;;;;;;;21.65;12.82;;;;;;;;;;12839421;19;20448;-67
2022/12/30 11:17:15;;;;;;;21.98;10.90;;;;;;;;;;12837889;19;20015;-66
2022/12/30 11:21:34;;;;;;;22.77;10.68;;;;;;;;;;12839170;19;20703;-65
2022/12/30 11:25:52;;;;;;;21.77;12.45;;;;;;;;;;12837286;19;20544;-67
2022/12/30 11:31:08;;;;;;;25.33;11.93;;;;;;;;;;12835660;19;20339;-65
2022/12/30 11:35:49;;;;;;;30.15;16.27;;;;;;;;;;12835122;19;20498;-66
2022/12/30 11:40:36;;;;;;;25.55;14.95;;;;;;;;;;12832206;19;20296;-66
2022/12/30 11:45:18;;;;;;;29.33;15.55;;;;;;;;;;12835536;19;20303;-66
2022/12/30 11:49:51;;;;;;;21.40;10.02;;;;;;;;;;12834902;19;20415;-65
2022/12/30 11:54:11;;;;;;;21.80;11.55;;;;;;;;;;12835261;19;20323;-65
2022/12/30 11:58:36;;;;;;;20.75;11.55;;;;;;;;;;12836472;19;20422;-66
2022/12/30 12:03:12;;;;;;;17.23;10.00;;;;;;;;;;12835318;19;20425;-66
2022/12/30 12:07:45;;;;;;;20.80;9.02;;;;;;;;;;12835509;19;20470;-66
2022/12/30 12:12:10;;;;;;;22.52;13.32;;;;;;;;;;12834420;19;20011;-66
2022/12/30 12:16:47;;;;;;;17.77;8.65;;;;;;;;;;12833403;19;20311;-67
2022/12/30 12:21:24;;;;;;;20.08;11.77;;;;;;;;;;12833734;19;20014;-65
2022/12/30 12:26:18;;;;;;;9.43;6.15;;;;;;;;;;12834717;19;20039;-65
2022/12/30 12:30:55;;;;;;;12.30;6.68;;;;;;;;;;12832486;19;20414;-65
2022/12/30 12:35:49;;;;;;;13.10;6.50;;;;;;;;;;12831986;19;20059;-67
2022/12/30 12:40:32;;;;;;;21.10;11.98;;;;;;;;;;12832879;19;20367;-67
2022/12/30 12:45:16;;;;;;;19.85;11.00;;;;;;;;;;12835645;19;20418;-66
2022/12/30 12:49:59;;;;;;;15.50;8.32;;;;;;;;;;12833814;19;20038;-66
2022/12/30 12:54:21;;;;;;;15.82;8.07;;;;;;;;;;12845212;19;20029;-66
2022/12/30 12:59:17;;;;;;;22.90;13.25;;;;;;;;;;12845769;19;20449;-66
2022/12/30 13:03:56;;;;;;;32.67;16.52;;;;;;;;;;12845594;19;20422;-66
2022/12/30 13:08:26;;;;;;;23.23;11.35;;;;;;;;;;12844219;19;20404;-67
2022/12/30 13:13:20;;;;;;;26.33;12.40;;;;;;;;;;12845224;19;20017;-67
2022/12/30 13:17:44;;;;;;;19.08;10.57;;;;;;;;;;12842778;19;20418;-65
2022/12/30 13:22:08;;;;;;;21.85;11.50;;;;;;;;;;12842814;19;20353;-66
2022/12/30 13:26:27;;;;;;;15.88;8.45;;;;;;;;;;12843770;19;20352;-65
2022/12/30 13:31:04;;;;;;;21.00;10.18;;;;;;;;;;12842894;19;20430;-66
2022/12/30 13:36:18;;;;;;;19.35;9.93;;;;;;;;;;12841884;19;20440;-66
2022/12/30 13:40:58;;;;;;;18.15;9.35;;;;;;;;;;12840343;19;20357;-65
2022/12/30 13:45:30;;;;;;;14.93;7.30;;;;;;;;;;12843455;19;20479;-67
2022/12/30 13:49:47;;;;;;;14.63;6.65;;;;;;;;;;12842416;19;20454;-67
2022/12/30 13:54:04;;;;;;;12.98;6.82;;;;;;;;;;12842956;19;20434;-66
2022/12/30 13:58:38;;;;;;;16.27;7.50;;;;;;;;;;12843464;19;20426;-65
2022/12/30 14:03:12;;;;;;;14.60;7.25;;;;;;;;;;12840997;19;20335;-65
2022/12/30 14:07:49;;;;;;;13.65;6.82;;;;;;;;;;12842227;19;20430;-65
2022/12/30 14:12:08;;;;;;;14.85;6.60;;;;;;;;;;12841876;19;20380;-65
2022/12/30 14:16:54;;;;;;;18.75;7.65;;;;;;;;;;12841985;19;20414;-65
2022/12/30 14:21:17;;;;;;;13.95;7.97;;;;;;;;;;12838171;19;20427;-65
2022/12/30 14:25:39;;;;;;;10.70;6.90;;;;;;;;;;12840053;19;20430;-66
2022/12/30 14:30:05;;;;;;;14.93;7.13;;;;;;;;;;12840880;19;20011;-66
2022/12/30 14:34:42;;;;;;;14.40;8.55;;;;;;;;;;12839499;19;20006;-65
2022/12/30 14:39:04;;;;;;;15.02;8.38;;;;;;;;;;12839119;19;20042;-66
2022/12/30 14:43:21;;;;;;;14.68;7.28;;;;;;;;;;12839311;19;20447;-66
2022/12/30 14:47:47;;;;;;;14.77;7.50;;;;;;;;;;12838809;19;20451;-66
2022/12/30 14:52:15;;;;;;;11.93;7.10;;;;;;;;;;12838982;19;20351;-66
2022/12/30 14:56:37;;;;;;;16.50;7.90;;;;;;;;;;12840108;19;20429;-65
2022/12/30 15:00:54;;;;;;;20.10;11.05;;;;;;;;;;12839444;19;20340;-66
2022/12/30 15:05:23;;;;;;;22.58;13.65;;;;;;;;;;12838451;19;20298;-65
2022/12/30 15:09:45;;;;;;;43.40;24.77;;;;;;;;;;12839582;19;20014;-66
2022/12/30 15:14:11;;;;;;;44.63;25.88;;;;;;;;;;12836869;19;20331;-66
2022/12/30 15:18:38;;;;;;;27.77;17.05;;;;;;;;;;12837185;19;20418;-67
2022/12/30 15:22:56;;;;;;;32.25;17.27;;;;;;;;;;12839099;19;20339;-68
2022/12/30 15:27:23;;;;;;;30.17;15.70;;;;;;;;;;12835277;19;20035;-67
2022/12/30 15:31:40;;;;;;;27.98;14.20;;;;;;;;;;12837399;19;20734;-65
2022/12/30 15:35:57;;;;;;;27.40;15.43;;;;;;;;;;12838874;19;20434;-66
2022/12/30 15:40:27;;;;;;;40.15;20.15;;;;;;;;;;12834856;19;20436;-66
2022/12/30 15:44:45;;;;;;;50.72;26.17;;;;;;;;;;12841007;19;20568;-66
2022/12/30 15:49:10;;;;;;;43.83;21.05;;;;;;;;;;12836065;19;20023;-66
2022/12/30 15:53:31;;;;;;;46.13;22.45;;;;;;;;;;12837154;19;20466;-66
2022/12/30 15:57:50;;;;;;;40.53;20.42;;;;;;;;;;12834963;19;20425;-66
2022/12/30 16:02:25;;;;;;;38.15;17.30;;;;;;;;;;12835707;19;20458;-66
2022/12/30 16:06:52;;;;;;;29.90;15.07;;;;;;;;;;12834867;19;20426;-67
2022/12/30 16:11:33;;;;;;;43.53;19.42;;;;;;;;;;12835211;19;20011;-66
2022/12/30 16:16:31;;;;;;;75.40;30.55;;;;;;;;;;12833747;19;20007;-66
2022/12/30 16:20:52;;;;;;;93.90;44.00;;;;;;;;;;12833530;19;20339;-66
2022/12/30 16:25:22;;;;;;;82.70;37.13;;;;;;;;;;12835481;19;20043;-66
2022/12/30 16:29:40;;;;;;;100.03;41.33;;;;;;;;;;12848657;19;20339;-65
2022/12/30 16:33:57;;;;;;;84.72;32.70;;;;;;;;;;12845129;19;20481;-65
2022/12/30 16:38:14;;;;;;;64.90;24.70;;;;;;;;;;12845496;19;20319;-66
2022/12/30 16:42:31;;;;;;;55.63;24.30;;;;;;;;;;12847800;19;20539;-66
2022/12/30 16:46:48;;;;;;;75.93;28.85;;;;;;;;;;12848168;19;20332;-66
2022/12/30 16:51:16;;;;;;;49.85;23.15;;;;;;;;;;12845266;19;20430;-66
2022/12/30 16:55:33;;;;;;;117.77;51.77;;;;;;;;;;12844739;19;20328;-65
2022/12/30 16:59:50;;;;;;;105.85;49.97;;;;;;;;;;12847193;19;20310;-67
2022/12/30 17:04:27;;;;;;;88.00;44.17;;;;;;;;;;12846654;19;20352;-65
2022/12/30 17:08:44;;;;;;;69.03;38.38;;;;;;;;;;12845621;19;20434;-65
2022/12/30 17:13:11;;;;;;;70.60;34.00;;;;;;;;;;12846691;19;20035;-65
2022/12/30 17:17:28;;;;;;;52.88;25.55;;;;;;;;;;12847008;19;20438;-67
2022/12/30 17:21:45;;;;;;;51.22;26.25;;;;;;;;;;12844627;19;20006;-66
2022/12/30 17:26:04;;;;;;;51.72;27.23;;;;;;;;;;12844954;19;20332;-66
2022/12/30 17:30:21;;;;;;;76.32;37.35;;;;;;;;;;12842913;19;20330;-67
2022/12/30 17:34:38;;;;;;;56.88;29.83;;;;;;;;;;12845841;19;20448;-65
2022/12/30 17:38:55;;;;;;;55.20;30.25;;;;;;;;;;12841002;19;20444;-66
2022/12/30 17:43:13;;;;;;;55.22;29.45;;;;;;;;;;12843011;19;20442;-66
2022/12/30 17:47:30;;;;;;;46.33;23.98;;;;;;;;;;12844060;19;20299;-65
2022/12/30 17:51:47;;;;;;;47.70;25.85;;;;;;;;;;12842295;19;20498;-66
2022/12/30 17:56:05;;;;;;;49.58;26.00;;;;;;;;;;12842469;19;20295;-66
2022/12/30 18:00:22;;;;;;;58.30;30.30;;;;;;;;;;12844249;19;20449;-67
2022/12/30 18:04:39;;;;;;;58.22;27.27;;;;;;;;;;12843738;19;20438;-66
2022/12/30 18:08:56;;;;;;;57.40;27.40;;;;;;;;;;12842648;19;20360;-66
2022/12/30 18:13:13;;;;;;;47.35;24.23;;;;;;;;;;12840310;19;20442;-66
2022/12/30 18:17:30;;;;;;;59.03;27.35;;;;;;;;;;12840987;19;20446;-65
2022/12/30 18:21:47;;;;;;;59.08;27.77;;;;;;;;;;12843063;19;20022;-66
2022/12/30 18:26:12;;;;;;;44.78;23.95;;;;;;;;;;12841855;19;20536;-66
2022/12/30 18:30:29;;;;;;;49.47;25.55;;;;;;;;;;12842051;19;20042;-66
2022/12/30 18:34:46;;;;;;;44.35;23.42;;;;;;;;;;12838442;19;20429;-65
2022/12/30 18:39:05;;;;;;;45.03;23.80;;;;;;;;;;12837835;19;20454;-66
2022/12/30 18:43:22;;;;;;;59.03;28.95;;;;;;;;;;12840260;19;20430;-65
2022/12/30 18:47:39;;;;;;;55.58;29.13;;;;;;;;;;12840765;19;20298;-66
2022/12/30 18:51:56;;;;;;;65.10;27.63;;;;;;;;;;12839352;19;20363;-65
2022/12/30 18:56:20;;;;;;;63.78;31.70;;;;;;;;;;12839572;19;20382;-65
2022/12/30 19:00:37;;;;;;;72.80;32.33;;;;;;;;;;12840165;19;20330;-65
2022/12/30 19:04:54;;;;;;;73.68;35.42;;;;;;;;;;12839159;19;20352;-66
2022/12/30 19:09:16;;;;;;;80.65;39.88;;;;;;;;;;12837948;19;20431;-66
2022/12/30 19:13:34;;;;;;;80.57;39.50;;;;;;;;;;12837926;19;20442;-66
2022/12/30 19:17:51;;;;;;;107.57;48.15;;;;;;;;;;12838681;19;20434;-66
2022/12/30 19:22:10;;;;;;;78.82;39.10;;;;;;;;;;12840546;19;20661;-65
2022/12/30 19:26:28;;;;;;;67.70;34.33;;;;;;;;;;12839420;19;20004;-65
2022/12/30 19:30:45;;;;;;;101.80;45.58;;;;;;;;;;12838350;19;20441;-65
2022/12/30 19:35:02;;;;;;;96.95;44.10;;;;;;;;;;12837348;19;20442;-67
2022/12/30 19:39:20;;;;;;;172.30;66.70;;;;;;;;;;12835770;19;20014;-65
2022/12/30 19:43:38;;;;;;;116.38;51.45;;;;;;;;;;12836478;19;20002;-66
2022/12/30 19:47:55;;;;;;;73.95;36.30;;;;;;;;;;12837007;19;20441;-65
2022/12/30 19:52:12;;;;;;;79.90;37.08;;;;;;;;;;12836039;19;20011;-65
2022/12/30 19:56:29;;;;;;;71.05;37.85;;;;;;;;;;12837878;19;20343;-65
2022/12/30 20:00:52;;;;;;;78.15;39.75;;;;;;;;;;12834469;19;20465;-67
2022/12/30 20:05:10;;;;;;;62.22;33.83;;;;;;;;;;12834847;19;20315;-66
2022/12/30 20:09:27;;;;;;;74.77;34.43;;;;;;;;;;12836530;19;20048;-67
2022/12/30 20:13:45;;;;;;;68.53;34.97;;;;;;;;;;12839118;19;20011;-65
2022/12/30 20:18:02;;;;;;;72.93;34.13;;;;;;;;;;12834427;19;20287;-65
2022/12/30 20:22:19;;;;;;;66.35;31.15;;;;;;;;;;12835544;19;20015;-65
2022/12/30 20:26:39;;;;;;;62.78;33.20;;;;;;;;;;12836184;19;20449;-66
2022/12/30 20:30:56;;;;;;;70.15;35.90;;;;;;;;;;12834665;19;20454;-66
2022/12/30 20:35:13;;;;;;;71.20;38.80;;;;;;;;;;12834131;19;20361;-66
2022/12/30 20:39:31;;;;;;;69.70;36.50;;;;;;;;;;12834205;19;20332;-65
2022/12/30 20:43:49;;;;;;;79.57;36.38;;;;;;;;;;12835090;19;20436;-66
2022/12/30 20:48:06;;;;;;;76.07;33.50;;;;;;;;;;12832502;19;20486;-66
2022/12/30 20:52:23;;;;;;;67.10;31.07;;;;;;;;;;12833806;19;20320;-66
2022/12/30 20:56:41;;;;;;;73.63;35.80;;;;;;;;;;12833847;19;20493;-67
2022/12/30 21:01:11;;;;;;;77.22;37.25;;;;;;;;;;12832687;19;20434;-67
2022/12/30 21:05:29;;;;;;;71.97;36.38;;;;;;;;;;12833077;19;20034;-67
2022/12/30 21:10:07;;;;;;;73.43;35.43;;;;;;;;;;12832569;19;20476;-65
2022/12/30 21:14:24;;;;;;;60.55;30.92;;;;;;;;;;12843279;19;20420;-66
2022/12/30 21:18:41;;;;;;;61.35;31.95;;;;;;;;;;12846993;19;20319;-67
2022/12/30 21:22:58;;;;;;;62.28;32.92;;;;;;;;;;12845172;19;20011;-66
2022/12/30 21:27:15;;;;;;;67.88;31.17;;;;;;;;;;12843888;19;20011;-65
2022/12/30 21:31:35;;;;;;;56.53;29.58;;;;;;;;;;12844532;19;20330;-66
2022/12/30 21:35:53;;;;;;;71.47;33.95;;;;;;;;;;12844469;19;20026;-66
2022/12/30 22:03:15;;;;;;;98.40;38.95;;;;;;;;;;12842332;19;20022;-67
2022/12/30 22:07:32;;;;;;;62.80;30.40;;;;;;;;;;12843607;19;20018;-65
2022/12/30 22:11:49;;;;;;;95.03;41.60;;;;;;;;;;12843195;19;20434;-65
2022/12/30 22:16:06;;;;;;;68.65;29.90;;;;;;;;;;12841263;19;20403;-65
2022/12/30 22:20:24;;;;;;;60.08;26.90;;;;;;;;;;12842077;19;20442;-65
2022/12/30 22:24:41;;;;;;;59.17;28.92;;;;;;;;;;12841171;19;20443;-65
2022/12/30 22:28:58;;;;;;;56.55;27.42;;;;;;;;;;12841689;19;20375;-66
2022/12/30 22:33:15;;;;;;;71.50;32.03;;;;;;;;;;12839581;19;20426;-65
2022/12/30 22:37:32;;;;;;;59.55;28.13;;;;;;;;;;12842128;19;20437;-65
2022/12/30 22:41:49;;;;;;;62.28;28.00;;;;;;;;;;12841023;19;20494;-66
2022/12/30 22:46:09;;;;;;;68.22;33.08;;;;;;;;;;12840048;19;20437;-66
2022/12/30 22:50:30;;;;;;;60.40;29.20;;;;;;;;;;12840874;19;20426;-67
2022/12/30 22:54:47;;;;;;;56.65;28.75;;;;;;;;;;12838876;19;20010;-67
2022/12/30 22:59:04;;;;;;;82.07;37.35;;;;;;;;;;12837941;19;20007;-65
2022/12/30 23:03:21;;;;;;;89.45;39.28;;;;;;;;;;12840829;19;20437;-66
2022/12/30 23:07:40;;;;;;;52.65;26.30;;;;;;;;;;12840881;19;20438;-65
2022/12/30 23:12:00;;;;;;;;;;;;;;;;;;12839722;19;20300;-66
2022/12/30 23:16:17;;;;;;;66.82;29.63;;;;;;;;;;12837201;19;20227;-66
2022/12/30 23:20:34;;;;;;;92.00;43.72;;;;;;;;;;12839401;19;20344;-65
2022/12/30 23:25:03;;;;;;;77.25;38.67;;;;;;;;;;12839736;19;20449;-66
2022/12/30 23:29:20;;;;;;;48.90;24.92;;;;;;;;;;12836174;19;20327;-66
2022/12/30 23:33:38;;;;;;;37.80;19.90;;;;;;;;;;12839944;19;20306;-65
2022/12/30 23:37:54;;;;;;;49.28;24.50;;;;;;;;;;12836984;19;20434;-65
2022/12/30 23:42:12;;;;;;;41.15;24.33;;;;;;;;;;12837359;19;20426;-66
2022/12/30 23:46:28;;;;;;;56.92;28.85;;;;;;;;;;12805762;19;20442;-66
2022/12/30 23:50:46;;;;;;;130.45;42.00;;;;;;;;;;12837825;19;20422;-66
2022/12/30 23:55:03;;;;;;;42.35;21.52;;;;;;;;;;12836392;19;20449;-65
2022/12/30 23:59:20;;;;;;;41.67;18.70;;;;;;;;;;12837664;19;20002;-66
